createdAt,value
2023-05-09T00:01:21.062Z,6.10
2023-05-09T00:05:30.131Z,7.20
2023-05-09T00:09:38.023Z,6.70
2023-05-09T00:13:45.337Z,6.80
2023-05-09T00:17:53.790Z,6.90
2023-05-09T00:22:01.849Z,6.80
2023-05-09T00:26:11.235Z,6.40
2023-05-09T00:30:23.885Z,6.30
2023-05-09T00:34:31.273Z,5.70
2023-05-09T00:38:38.722Z,6.20
2023-05-09T00:42:46.766Z,7.10
2023-05-09T00:46:54.559Z,6.40
2023-05-09T00:51:02.650Z,6.10
2023-05-09T00:55:11.859Z,6.30
2023-05-09T00:59:20.323Z,6.30
2023-05-09T01:03:27.963Z,5.50
2023-05-09T01:07:43.796Z,6.20
2023-05-09T01:11:57.396Z,6.10
2023-05-09T01:16:10.974Z,6.10
2023-05-09T01:20:25.191Z,6.40
2023-05-09T01:24:58.275Z,6.70
2023-05-09T01:29:31.894Z,6.20
2023-05-09T01:33:41.836Z,5.70
2023-05-09T01:37:52.338Z,6.60
2023-05-09T01:42:02.582Z,5.40
2023-05-09T01:46:11.457Z,6.00
2023-05-09T01:50:20.844Z,5.70
2023-05-09T01:54:28.653Z,6.80
2023-05-09T01:58:38.401Z,5.50
2023-05-09T02:02:46.887Z,5.90
2023-05-09T02:06:57.065Z,5.90
2023-05-09T02:11:04.745Z,6.20
2023-05-09T02:15:15.016Z,5.70
2023-05-09T02:19:23.387Z,6.30
2023-05-09T02:23:30.948Z,5.70
2023-05-09T02:27:39.133Z,6.90
2023-05-09T02:31:49.319Z,6.60
2023-05-09T02:35:57.450Z,5.70
2023-05-09T02:40:05.799Z,5.90
2023-05-09T02:44:14.544Z,6.10
2023-05-09T02:48:22.792Z,6.00
2023-05-09T02:52:31.630Z,6.20
2023-05-09T02:56:39.857Z,6.10
2023-05-09T03:00:47.657Z,7.00
2023-05-09T03:04:56.718Z,7.50
2023-05-09T03:09:04.631Z,6.00
2023-05-09T03:13:13.225Z,5.60
2023-05-09T03:17:23.449Z,6.50
2023-05-09T03:21:32.107Z,6.60
2023-05-09T03:25:39.613Z,5.80
2023-05-09T03:29:47.717Z,6.60
2023-05-09T03:33:55.410Z,7.40
2023-05-09T03:38:03.143Z,6.40
2023-05-09T03:42:12.328Z,6.30
2023-05-09T03:46:20.208Z,6.30
2023-05-09T03:50:28.576Z,6.60
2023-05-09T03:54:36.686Z,6.10
2023-05-09T03:58:44.691Z,6.90
2023-05-09T04:02:52.739Z,7.10
2023-05-09T04:07:00.527Z,7.00
2023-05-09T04:11:08.682Z,6.20
2023-05-09T04:15:16.990Z,6.00
2023-05-09T04:19:26.401Z,6.10
2023-05-09T04:23:34.301Z,6.00
2023-05-09T04:27:41.880Z,6.60
2023-05-09T04:31:50.093Z,7.40
2023-05-09T04:35:58.626Z,7.90
2023-05-09T04:40:09.196Z,7.30
2023-05-09T04:44:17.756Z,6.70
2023-05-09T04:48:25.310Z,7.60
2023-05-09T04:52:33.665Z,7.80
2023-05-09T04:56:41.100Z,6.30
2023-05-09T05:00:51.357Z,6.20
2023-05-09T05:05:10.808Z,6.30
2023-05-09T05:09:20.152Z,8.90
2023-05-09T05:13:27.960Z,7.80
2023-05-09T05:17:37.008Z,7.40
2023-05-09T05:21:44.595Z,6.30
2023-05-09T05:25:52.657Z,6.00
2023-05-09T05:30:02.355Z,6.70
2023-05-09T05:34:10.307Z,6.90
2023-05-09T05:38:17.979Z,7.60
2023-05-09T05:42:25.907Z,7.70
2023-05-09T05:46:34.588Z,7.70
2023-05-09T05:50:42.558Z,9.10
2023-05-09T05:54:50.715Z,9.60
2023-05-09T05:58:58.611Z,8.70
2023-05-09T06:03:06.917Z,9.10
2023-05-09T06:07:16.035Z,8.80
2023-05-09T06:11:23.640Z,8.40
2023-05-09T06:15:32.038Z,8.40
2023-05-09T06:19:40.497Z,8.20
2023-05-09T06:24:05.891Z,7.40
2023-05-09T06:28:17.072Z,8.80
2023-05-09T06:32:25.153Z,8.50
2023-05-09T06:36:33.611Z,6.90
2023-05-09T06:40:42.197Z,8.00
2023-05-09T06:44:50.201Z,6.80
2023-05-09T06:48:59.042Z,8.10
2023-05-09T06:53:06.788Z,8.40
2023-05-09T06:57:16.247Z,7.80
2023-05-09T07:01:24.129Z,8.20
2023-05-09T07:05:32.012Z,7.20
2023-05-09T07:09:39.973Z,7.90
2023-05-09T07:13:47.509Z,7.90
2023-05-09T07:17:56.095Z,7.00
2023-05-09T07:22:03.806Z,7.30
2023-05-09T07:26:12.186Z,7.40
2023-05-09T07:30:20.155Z,7.20
2023-05-09T07:34:27.823Z,7.50
2023-05-09T07:38:37.531Z,6.60
2023-05-09T07:42:50.007Z,7.00
2023-05-09T07:46:59.431Z,6.90
2023-05-09T07:51:07.139Z,6.70
2023-05-09T07:55:14.920Z,7.20
2023-05-09T07:59:23.522Z,6.50
2023-05-09T08:03:32.424Z,6.70
2023-05-09T08:07:40.726Z,6.30
2023-05-09T08:11:48.507Z,6.70
2023-05-09T08:15:56.875Z,6.30
2023-05-09T08:20:06.241Z,6.20
2023-05-09T08:24:14.843Z,4.70
2023-05-09T08:28:24.297Z,5.30
2023-05-09T08:32:32.527Z,5.40
2023-05-09T08:36:41.473Z,5.00
2023-05-09T08:40:49.700Z,5.10
2023-05-09T08:44:57.762Z,5.30
2023-05-09T08:49:08.352Z,5.70
2023-05-09T08:53:16.902Z,5.30
2023-05-09T08:57:25.164Z,5.80
2023-05-09T09:01:33.532Z,5.50
2023-05-09T09:05:43.706Z,5.40
2023-05-09T09:09:52.180Z,5.50
2023-05-09T09:14:04.118Z,5.40
2023-05-09T09:18:13.721Z,5.30
2023-05-09T09:22:22.970Z,5.70
2023-05-09T09:26:32.146Z,5.20
2023-05-09T09:30:47.700Z,5.60
2023-05-09T09:35:08.195Z,5.10
2023-05-09T09:39:16.605Z,4.30
2023-05-09T09:43:31.806Z,4.90
2023-05-09T09:47:40.021Z,5.10
2023-05-09T09:51:48.400Z,5.10
2023-05-09T09:55:56.076Z,5.90
2023-05-09T10:00:06.453Z,5.20
2023-05-09T10:04:19.112Z,5.80
2023-05-09T10:08:28.744Z,5.30
2023-05-09T10:12:40.021Z,5.10
2023-05-09T10:16:48.138Z,5.60
2023-05-09T10:20:57.307Z,5.30
2023-05-09T10:25:13.274Z,5.10
2023-05-09T10:29:23.163Z,4.30
2023-05-09T10:33:39.680Z,4.90
2023-05-09T10:37:48.000Z,4.40
2023-05-09T10:41:55.386Z,4.30
2023-05-09T10:46:04.098Z,4.50
2023-05-09T10:50:14.183Z,4.90
2023-05-09T10:54:32.594Z,4.10
2023-05-09T10:58:42.183Z,4.30
2023-05-09T11:03:09.305Z,4.40
2023-05-09T11:07:30.566Z,3.90
2023-05-09T11:11:54.352Z,3.90
2023-05-09T11:16:16.249Z,4.20
2023-05-09T11:20:31.344Z,3.60
2023-05-09T11:24:41.594Z,3.00
2023-05-09T11:28:56.904Z,3.10
2023-05-09T11:33:06.847Z,2.80
2023-05-09T11:37:16.120Z,3.30
2023-05-09T11:41:23.989Z,2.80
2023-05-09T11:45:34.002Z,3.10
2023-05-09T11:49:42.022Z,3.50
2023-05-09T11:53:54.292Z,3.00
2023-05-09T11:58:02.670Z,2.50
2023-05-09T12:02:10.594Z,2.80
2023-05-09T12:06:23.018Z,3.00
2023-05-09T12:10:30.519Z,3.10
2023-05-09T12:14:39.367Z,2.80
2023-05-09T12:18:51.906Z,3.20
2023-05-09T12:22:59.701Z,2.70
2023-05-09T12:27:08.463Z,3.00
2023-05-09T12:31:17.973Z,3.40
2023-05-09T12:35:26.614Z,2.80
2023-05-09T12:39:34.033Z,2.60
2023-05-09T12:43:44.053Z,2.90
2023-05-09T12:47:59.101Z,3.00
2023-05-09T12:52:09.748Z,2.60
2023-05-09T12:56:19.092Z,2.50
2023-05-09T13:00:27.603Z,2.50
2023-05-09T13:04:39.305Z,2.70
2023-05-09T13:08:58.644Z,2.50
2023-05-09T13:13:07.560Z,2.80
2023-05-09T13:17:16.032Z,2.80
2023-05-09T13:21:27.006Z,3.00
2023-05-09T13:25:34.461Z,2.80
2023-05-09T13:29:42.983Z,3.40
2023-05-09T13:33:51.873Z,3.20
2023-05-09T13:38:01.268Z,3.40
2023-05-09T13:42:09.310Z,2.90
2023-05-09T13:46:18.066Z,3.00
2023-05-09T13:50:27.639Z,3.10
2023-05-09T13:54:35.598Z,3.30
2023-05-09T13:58:43.628Z,3.50
2023-05-09T14:02:51.470Z,3.50
2023-05-09T14:07:00.208Z,3.70
2023-05-09T14:11:09.570Z,3.40
2023-05-09T14:15:17.674Z,3.60
2023-05-09T14:19:27.270Z,3.60
2023-05-09T14:23:34.649Z,4.30
2023-05-09T14:27:42.368Z,3.90
2023-05-09T14:31:49.953Z,3.40
2023-05-09T14:36:01.432Z,3.50
2023-05-09T14:40:11.942Z,3.20
2023-05-09T14:44:19.659Z,3.40
2023-05-09T14:48:27.757Z,3.40
2023-05-09T14:52:37.391Z,3.90
2023-05-09T14:56:45.126Z,4.00
2023-05-09T15:00:53.548Z,3.70
2023-05-09T15:05:01.652Z,3.90
2023-05-09T15:09:10.353Z,3.60
2023-05-09T15:13:19.149Z,4.10
2023-05-09T15:17:27.875Z,4.10
2023-05-09T15:21:35.877Z,4.40
2023-05-09T15:25:46.399Z,4.50
2023-05-09T15:29:55.070Z,5.10
2023-05-09T15:34:03.065Z,4.30
2023-05-09T15:38:12.243Z,4.10
2023-05-09T15:42:21.069Z,3.80
2023-05-09T15:46:28.987Z,3.90
2023-05-09T15:50:36.768Z,4.30
2023-05-09T15:54:45.396Z,4.50
2023-05-09T15:58:53.456Z,4.40
2023-05-09T16:03:05.050Z,4.40
2023-05-09T16:07:13.850Z,4.10
2023-05-09T16:11:22.226Z,4.10
2023-05-09T16:15:30.076Z,4.40
2023-05-09T16:19:38.269Z,4.10
2023-05-09T16:23:48.463Z,4.10
2023-05-09T16:27:58.114Z,4.40
2023-05-09T16:32:08.025Z,4.40
2023-05-09T16:36:17.169Z,4.20
2023-05-09T16:40:25.404Z,4.20
2023-05-09T16:44:33.519Z,3.90
2023-05-09T16:48:41.070Z,4.50
2023-05-09T16:52:50.228Z,4.70
2023-05-09T16:56:57.975Z,4.10
2023-05-09T17:01:06.775Z,4.00
2023-05-09T17:05:14.525Z,3.50
2023-05-09T17:09:22.858Z,3.90
2023-05-09T17:13:30.816Z,4.00
2023-05-09T17:17:39.231Z,4.20
2023-05-09T17:21:47.143Z,4.00
2023-05-09T17:25:55.385Z,4.30
2023-05-09T17:30:03.397Z,4.00
2023-05-09T17:34:11.814Z,4.40
2023-05-09T17:38:19.794Z,4.40
2023-05-09T17:42:27.591Z,4.50
2023-05-09T17:46:38.452Z,4.50
2023-05-09T17:50:47.697Z,4.20
2023-05-09T17:54:55.844Z,4.70
2023-05-09T17:59:04.320Z,4.40
2023-05-09T18:03:13.094Z,4.30
2023-05-09T18:07:21.238Z,4.30
2023-05-09T18:11:29.989Z,4.70
2023-05-09T18:15:38.592Z,4.30
2023-05-09T18:19:46.798Z,4.60
2023-05-09T18:23:55.057Z,5.20
2023-05-09T18:28:03.020Z,4.30
2023-05-09T18:32:15.983Z,4.70
2023-05-09T18:36:23.689Z,5.50
2023-05-09T18:40:32.713Z,5.50
2023-05-09T18:44:40.652Z,5.00
2023-05-09T18:48:51.524Z,4.50
2023-05-09T18:53:00.185Z,5.00
2023-05-09T18:57:11.904Z,5.00
2023-05-09T19:01:19.728Z,4.80
2023-05-09T19:05:29.121Z,5.70
2023-05-09T19:09:37.598Z,5.00
2023-05-09T19:13:49.766Z,5.50
2023-05-09T19:17:57.712Z,5.30
2023-05-09T19:22:07.749Z,5.30
2023-05-09T19:26:16.253Z,4.80
2023-05-09T19:30:25.062Z,5.10
2023-05-09T19:34:33.695Z,5.00
2023-05-09T19:38:41.510Z,5.30
2023-05-09T19:42:49.789Z,5.40
2023-05-09T19:47:00.949Z,5.00
2023-05-09T19:51:12.420Z,4.70
2023-05-09T19:55:20.520Z,5.30
2023-05-09T19:59:28.666Z,5.20
2023-05-09T20:03:38.943Z,5.10
2023-05-09T20:07:46.908Z,4.70
2023-05-09T20:11:56.253Z,5.00
2023-05-09T20:16:04.562Z,4.70
2023-05-09T20:20:14.433Z,4.50
2023-05-09T20:24:22.458Z,5.40
2023-05-09T20:28:30.731Z,4.90
2023-05-09T20:32:38.445Z,4.90
2023-05-09T20:36:52.054Z,5.20
2023-05-09T20:41:00.196Z,4.40
2023-05-09T20:45:09.392Z,4.50
2023-05-09T20:49:17.264Z,4.90
2023-05-09T20:53:27.521Z,5.00
2023-05-09T20:57:36.425Z,4.60
2023-05-09T21:01:44.629Z,5.00
2023-05-09T21:05:52.686Z,4.70
2023-05-09T21:10:02.316Z,4.40
2023-05-09T21:14:11.996Z,4.60
2023-05-09T21:18:20.523Z,4.90
2023-05-09T21:22:28.618Z,4.40
2023-05-09T21:26:36.805Z,5.00
2023-05-09T21:30:44.719Z,5.00
2023-05-09T21:34:52.676Z,5.10
2023-05-09T21:39:07.510Z,5.20
2023-05-09T21:43:18.361Z,5.20
2023-05-09T21:47:26.790Z,5.00
2023-05-09T21:51:35.405Z,4.80
2023-05-09T21:55:44.582Z,4.70
2023-05-09T21:59:53.533Z,5.80
2023-05-09T22:04:02.751Z,5.00
2023-05-09T22:08:10.907Z,5.40
2023-05-09T22:12:18.716Z,5.60
2023-05-09T22:16:27.639Z,4.90
2023-05-09T22:20:35.453Z,5.00
2023-05-09T22:24:45.215Z,5.30
2023-05-09T22:28:53.179Z,5.00
2023-05-09T22:33:03.176Z,4.90
2023-05-09T22:37:10.860Z,5.60
2023-05-09T22:41:18.520Z,4.90
2023-05-09T22:45:27.093Z,5.50
2023-05-09T22:49:35.618Z,5.40
2023-05-09T22:53:43.360Z,5.40
2023-05-09T22:57:51.267Z,6.10
2023-05-09T23:01:59.964Z,5.50
2023-05-09T23:06:08.700Z,5.20
2023-05-09T23:10:17.110Z,5.60
2023-05-09T23:14:25.336Z,5.30
2023-05-09T23:18:32.948Z,5.30
2023-05-09T23:22:40.687Z,5.70
2023-05-09T23:26:48.463Z,5.90
2023-05-09T23:30:56.566Z,6.10
2023-05-09T23:35:04.810Z,6.20
2023-05-09T23:39:12.825Z,5.10
2023-05-09T23:43:20.308Z,5.40
2023-05-09T23:47:27.751Z,5.70
2023-05-09T23:51:35.438Z,5.90
2023-05-09T23:55:43.428Z,6.00
2023-05-09T23:59:51.376Z,6.30
